Nearby METAR Reports

 

KSYN - Stanton, Minnesota, USA
Distance from station: NW 20mi, 33km
Updated: Fri, 09-Dec-2022 3:35pm CST
Overcast
Overcast
 Wind from ENE
Wind: ENE 9 mph , 15 km/h
Temperature: 32°F , 0°C
Wind Chill: 24°F , -4°C
Dew Point: 28°F , -2°C
Humidity: 87%
Barometer: 30.18 inHg , 1022 hPa
Clouds: Overcast
Visibility: 10 miles , 16 km
Cloud details: Overcast 1300 ft
2022/12/09 21:35 KSYN 092135Z AUTO 07008KT 10SM OVC013 00/M02 A3018 RMK AO2 T10011022
KTOB - Dodge Center, Minnesota, USA
Distance from station: SSW 21mi, 34km
Updated: Fri, 09-Dec-2022 3:35pm CST
Overcast
Overcast
 Wind from ENE
Wind: ENE 14 mph , 22 km/h
Temperature: 30°F , -1°C
Wind Chill: 19°F , -7°C
Dew Point: 28°F , -2°C
Humidity: 93%
Barometer: 30.16 inHg , 1021.3 hPa
Clouds: Overcast
Visibility: 10 miles , 16 km
Cloud details: Mostly cloudy 800 ft
Overcast 1200 ft
2022/12/09 21:35 KTOB 092135Z AUTO 07012KT 10SM BKN008 OVC012 M01/M02 A3016 RMK AO2
K9MN - St Mary Hospital, Minnesota, USA
Distance from station: SSE 22mi, 35km
Updated: Fri, 09-Dec-2022 3:15pm CST
Overcast
Overcast
 Wind from NE
Wind: NE 6 mph , 9 km/h
Temperature: 32°F , 0°C
Wind Chill: 26°F , -3°C
Dew Point: 30°F , -1°C
Humidity: 93%
Barometer: 30.17 inHg , 1021.7 hPa
Clouds: Overcast
Visibility: 10 miles , 16 km
Cloud details: Partly cloudy 500 ft
Overcast 1300 ft
2022/12/09 21:15 K9MN 092115Z AUTO 04005KT 10SM SCT005 OVC013 00/M01 A3017 RMK AO1 T00001007
 
KRGK - Red Wing, Minnesota, USA
Distance from station: NNE 22mi, 35km
Updated: Fri, 09-Dec-2022 3:35pm CST
Overcast
Overcast
 Wind from E
Wind: E 9 mph , 15 km/h
Temperature: 32°F , 0°C
Wind Chill: 24°F , -4°C
Dew Point: 27°F , -3°C
Humidity: 80%
Barometer: 30.19 inHg , 1022.4 hPa
Clouds: Overcast
Visibility: 10 miles , 16 km
Cloud details: Overcast 1700 ft
2022/12/09 21:35 KRGK 092135Z AUTO 08008KT 10SM OVC017 00/M03 A3019 RMK AO2
KRST - Rochester, Minnesota, USA
Distance from station: SSE 29mi, 47km
Updated: Fri, 09-Dec-2022 2:54pm CST
Mist, Overcast
Mist, Overcast
 Wind from NE
Wind: NE 14 mph , 22 km/h
Temperature: 32°F , 0°C
Wind Chill: 22°F , -6°C
Dew Point: 28°F , -2°C
Humidity: 87%
Barometer: 30.16 inHg , 1021.3 hPa
Summary: Mist
Clouds: Overcast
Visibility: 6 miles , 10 km
Cloud details: Overcast 800 ft
2022/12/09 20:54 KRST 092054Z 05012KT 6SM BR OVC008 00/M02 A3016 RMK AO2 CIG 006V010 SLP230 60000 T00001017 50002
KOWA - Owatonna, Minnesota, USA
Distance from station: WSW 31mi, 50km
Updated: Fri, 09-Dec-2022 3:33pm CST
Overcast
Overcast
 Wind from ENE
Wind: ENE 10 mph , 17 km/h
Temperature: 30°F , -1°C
Wind Chill: 21°F , -6°C
Dew Point: 28°F , -2°C
Humidity: 93%
Barometer: 30.16 inHg , 1021.3 hPa
Clouds: Overcast
Visibility: 10 miles , 16 km
Cloud details: Overcast 800 ft
2022/12/09 21:33 KOWA 092133Z AUTO 07009KT 10SM OVC008 M01/M02 A3016 RMK AO2
 
KFBL - Faribault Muni, Minnesota, USA
Distance from station: W 32mi, 51km
Updated: Fri, 09-Dec-2022 3:35pm CST
Overcast
Overcast
 Wind from NE
Wind: NE 8 mph , 13 km/h
Temperature: 30°F , -1°C
Wind Chill: 22°F , -6°C
Dew Point: 28°F , -2°C
Humidity: 93%
Barometer: 30.16 inHg , 1021.3 hPa
Clouds: Overcast
Visibility: 10 miles , 16 km
Cloud details: Overcast 700 ft
2022/12/09 21:35 KFBL 092135Z AUTO 04007KT 10SM OVC007 M01/M02 A3016 RMK AO2
KSGS - South St Paul, Minnesota, USA
Distance from station: NNW 43mi, 69km
Updated: Fri, 09-Dec-2022 3:35pm CST
Overcast
Overcast
 Wind from E
Wind: E 9 mph , 15 km/h
Temperature: 32°F , 0°C
Wind Chill: 24°F , -4°C
Dew Point: 27°F , -3°C
Humidity: 80%
Barometer: 30.20 inHg , 1022.7 hPa
Clouds: Overcast
Visibility: 10 miles , 16 km
Cloud details: Overcast 1400 ft
2022/12/09 21:35 KSGS 092135Z AUTO 08008KT 10SM OVC014 00/M03 A3020 RMK AO2 T00001035
KAUM - Austin Muni, Minnesota, USA
Distance from station: SSW 46mi, 73km
Updated: Fri, 09-Dec-2022 3:16pm CST
Overcast
Overcast
 Wind from E
Wind: E 13 mph , 20 km/h
Temperature: 36°F , 2°C
Wind Chill: 27°F , -3°C
Dew Point: 30°F , -1°C
Humidity: 81%
Barometer: 30.14 inHg , 1020.7 hPa
Clouds: Overcast
Visibility: 10 miles , 16 km
Cloud details: Overcast 1300 ft
2022/12/09 21:16 KAUM 092116Z AUTO 09011KT 10SM OVC013 02/M01 A3014 RMK AO2
 
KACQ - Waseca, Minnesota, USA
Distance from station: WSW 46mi, 75km
Updated: Fri, 09-Dec-2022 3:35pm CST
Overcast
Overcast
 Wind from ENE
Wind: ENE 12 mph , 19 km/h
Temperature: 32°F , 0°C
Wind Chill: 23°F , -5°C
Dew Point: 30°F , -1°C
Humidity: 93%
Barometer: 30.16 inHg , 1021.3 hPa
Clouds: Overcast
Visibility: 10 miles , 16 km
Cloud details: Overcast 900 ft
2022/12/09 21:35 KACQ 092135Z AUTO 06010KT 10SM OVC009 00/M01 A3016 RMK AO2
KSTP - St. Paul, Minnesota, USA
Distance from station: NNW 47mi, 76km
Updated: Fri, 09-Dec-2022 2:53pm CST
Overcast
Overcast
 Wind from ENE
Wind: ENE 13 mph , 20 km/h
Temperature: 30°F , -1°C
Wind Chill: 20°F , -7°C
Dew Point: 25°F , -4°C
Humidity: 80%
Barometer: 30.23 inHg , 1023.7 hPa
Clouds: Overcast
Visibility: 10 miles , 16 km
Cloud details: Overcast 1500 ft
2022/12/09 20:53 KSTP 092053Z AUTO 07011KT 10SM OVC015 M01/M04 A3023 RMK AO2 SLP242 T10061044 58010
KMSP - Minneapolis, Minnesota, USA
Distance from station: NW 49mi, 78km
Updated: Fri, 09-Dec-2022 2:53pm CST
Overcast
Overcast
 Wind from E
Wind: E 13 mph , 20 km/h
Temperature: 30°F , -1°C
Wind Chill: 20°F , -7°C
Dew Point: 23°F , -5°C
Humidity: 75%
Barometer: 30.21 inHg , 1023 hPa
Clouds: Overcast
Visibility: 10 miles , 16 km
Cloud details: Overcast 1600 ft
2022/12/09 20:53 KMSP 092053Z 09011KT 10SM OVC016 M01/M05 A3021 RMK AO2 SLP240 T10111050 58010